Terminal Aerodrome Forecast
Issued by NWS

Home | Current Version | Previous Version | Text Only | Print | Product List | Glossary On
Versions: 1 2 3 4 5 6 7 8 9 10 11 12 13 14 15
702
FTAK31 PAJN 091140
TAFAGY
TAF
PAGY 091140Z 0912/1012 21018G30KT P6SM -SHRA BKN060 OVC080
     FM091400 21010G17KT P6SM -SHRA SCT025 OVC050
     FM091800 04008KT P6SM SCT030 BKN060 OVC100
     FM100100 04012KT P6SM SCT060 SCT100
     FM101100 03008KT P6SM -RA BKN050 OVC080
      AMD LTD TO CLD VIS AND WIND=

USA.gov is the U.S. government's official web portal to all federal, state and local government web resources and services.